sensor_id;sensor_type;location;lat;lon;timestamp;pressure;altitude;pressure_sealevel;temperature;humidity
73205;BME280;61413;-27.702;153.216;2024-03-02T00:01:21;101484.92;;;28.98;30.55
73205;BME280;61413;-27.702;153.216;2024-03-02T00:03:47;101479.05;;;29.24;30.48
73205;BME280;61413;-27.702;153.216;2024-03-02T00:06:14;101473.21;;;29.27;30.31
73205;BME280;61413;-27.702;153.216;2024-03-02T00:08:41;101476.78;;;29.48;30.09
73205;BME280;61413;-27.702;153.216;2024-03-02T00:11:08;101471.18;;;29.37;30.02
73205;BME280;61413;-27.702;153.216;2024-03-02T00:13:35;101469.47;;;29.40;29.82
73205;BME280;61413;-27.702;153.216;2024-03-02T00:16:02;101463.59;;;29.38;29.38
73205;BME280;61413;-27.702;153.216;2024-03-02T00:18:32;101462.81;;;29.50;29.78
73205;BME280;61413;-27.702;153.216;2024-03-02T00:20:56;101461.75;;;29.32;29.99
73205;BME280;61413;-27.702;153.216;2024-03-02T00:23:26;101452.85;;;29.32;29.84
73205;BME280;61413;-27.702;153.216;2024-03-02T00:25:52;101451.22;;;29.77;29.57
73205;BME280;61413;-27.702;153.216;2024-03-02T00:28:17;101449.67;;;29.56;29.39
73205;BME280;61413;-27.702;153.216;2024-03-02T00:30:54;101451.14;;;30.15;29.05
73205;BME280;61413;-27.702;153.216;2024-03-02T00:33:09;101445.25;;;29.84;28.96
73205;BME280;61413;-27.702;153.216;2024-03-02T00:35:36;101438.23;;;29.44;29.17
73205;BME280;61413;-27.702;153.216;2024-03-02T00:38:06;101438.06;;;29.25;29.46
73205;BME280;61413;-27.702;153.216;2024-03-02T00:40:31;101437.83;;;30.24;29.18
73205;BME280;61413;-27.702;153.216;2024-03-02T00:42:58;101439.11;;;29.87;28.95
73205;BME280;61413;-27.702;153.216;2024-03-02T00:45:24;101435.67;;;30.29;29.00
73205;BME280;61413;-27.702;153.216;2024-03-02T00:47:51;101432.11;;;30.18;29.04
73205;BME280;61413;-27.702;153.216;2024-03-02T00:50:19;101426.74;;;29.79;29.17
73205;BME280;61413;-27.702;153.216;2024-03-02T00:52:45;101419.57;;;29.81;28.78
73205;BME280;61413;-27.702;153.216;2024-03-02T00:55:12;101412.97;;;30.86;28.05
73205;BME280;61413;-27.702;153.216;2024-03-02T00:57:39;101400.77;;;31.09;27.25
73205;BME280;61413;-27.702;153.216;2024-03-02T01:00:07;101394.53;;;31.54;27.07
73205;BME280;61413;-27.702;153.216;2024-03-02T01:02:33;101395.91;;;31.56;27.21
73205;BME280;61413;-27.702;153.216;2024-03-02T01:05:00;101390.34;;;31.31;26.98
73205;BME280;61413;-27.702;153.216;2024-03-02T01:07:26;101388.94;;;32.05;26.86
73205;BME280;61413;-27.702;153.216;2024-03-02T01:09:53;101385.76;;;31.89;26.35
73205;BME280;61413;-27.702;153.216;2024-03-02T01:12:20;101379.64;;;32.75;25.87
73205;BME280;61413;-27.702;153.216;2024-03-02T01:14:46;101378.40;;;32.65;26.20
73205;BME280;61413;-27.702;153.216;2024-03-02T01:17:13;101374.06;;;32.89;25.78
73205;BME280;61413;-27.702;153.216;2024-03-02T01:19:42;101366.07;;;33.26;25.63
73205;BME280;61413;-27.702;153.216;2024-03-02T01:22:08;101359.50;;;33.16;25.46
73205;BME280;61413;-27.702;153.216;2024-03-02T01:24:35;101355.62;;;32.68;25.31
73205;BME280;61413;-27.702;153.216;2024-03-02T01:27:01;101351.21;;;32.81;25.37
73205;BME280;61413;-27.702;153.216;2024-03-02T01:29:28;101350.42;;;32.71;25.34
73205;BME280;61413;-27.702;153.216;2024-03-02T01:31:55;101346.42;;;32.98;25.26
73205;BME280;61413;-27.702;153.216;2024-03-02T01:34:27;101342.81;;;33.23;25.24
73205;BME280;61413;-27.702;153.216;2024-03-02T01:36:50;101337.10;;;33.11;25.17
73205;BME280;61413;-27.702;153.216;2024-03-02T01:39:17;101330.61;;;33.31;25.16
73205;BME280;61413;-27.702;153.216;2024-03-02T01:41:44;101325.89;;;33.15;24.98
73205;BME280;61413;-27.702;153.216;2024-03-02T01:44:11;101320.65;;;32.93;24.95
73205;BME280;61413;-27.702;153.216;2024-03-02T01:46:37;101319.73;;;33.33;25.00
73205;BME280;61413;-27.702;153.216;2024-03-02T01:49:04;101317.72;;;33.38;24.86
73205;BME280;61413;-27.702;153.216;2024-03-02T01:51:31;101316.99;;;33.68;24.69
73205;BME280;61413;-27.702;153.216;2024-03-02T01:53:58;101308.92;;;33.76;24.50
73205;BME280;61413;-27.702;153.216;2024-03-02T01:56:25;101309.69;;;33.86;24.35
73205;BME280;61413;-27.702;153.216;2024-03-02T01:58:51;101304.48;;;33.57;24.40
73205;BME280;61413;-27.702;153.216;2024-03-02T02:01:18;101297.85;;;33.57;24.26
73205;BME280;61413;-27.702;153.216;2024-03-02T02:03:45;101295.94;;;33.22;24.34
73205;BME280;61413;-27.702;153.216;2024-03-02T02:06:12;101290.18;;;33.73;24.35
73205;BME280;61413;-27.702;153.216;2024-03-02T02:08:39;101279.02;;;33.77;24.29
73205;BME280;61413;-27.702;153.216;2024-03-02T02:11:06;101276.28;;;33.84;24.26
73205;BME280;61413;-27.702;153.216;2024-03-02T02:13:32;101273.36;;;33.97;24.30
73205;BME280;61413;-27.702;153.216;2024-03-02T02:16:06;101275.12;;;34.43;24.08
73205;BME280;61413;-27.702;153.216;2024-03-02T02:18:25;101274.83;;;34.32;23.82
73205;BME280;61413;-27.702;153.216;2024-03-02T02:20:51;101275.29;;;34.48;23.53
73205;BME280;61413;-27.702;153.216;2024-03-02T02:23:18;101272.74;;;34.47;23.27
73205;BME280;61413;-27.702;153.216;2024-03-02T02:25:44;101272.69;;;34.52;23.18
73205;BME280;61413;-27.702;153.216;2024-03-02T02:28:11;101269.04;;;34.18;23.31
73205;BME280;61413;-27.702;153.216;2024-03-02T02:30:37;101267.21;;;34.32;23.24
73205;BME280;61413;-27.702;153.216;2024-03-02T02:33:04;101256.32;;;34.41;23.11
73205;BME280;61413;-27.702;153.216;2024-03-02T02:35:31;101258.73;;;34.25;23.09
73205;BME280;61413;-27.702;153.216;2024-03-02T02:37:58;101258.54;;;34.06;23.18
73205;BME280;61413;-27.702;153.216;2024-03-02T02:40:25;101257.62;;;34.15;23.06
73205;BME280;61413;-27.702;153.216;2024-03-02T02:42:52;101245.55;;;33.87;23.06
73205;BME280;61413;-27.702;153.216;2024-03-02T02:45:19;101242.89;;;33.64;22.94
73205;BME280;61413;-27.702;153.216;2024-03-02T02:47:46;101238.74;;;33.64;23.05
73205;BME280;61413;-27.702;153.216;2024-03-02T02:50:13;101231.14;;;34.09;23.06
73205;BME280;61413;-27.702;153.216;2024-03-02T02:52:41;101228.23;;;34.34;23.18
73205;BME280;61413;-27.702;153.216;2024-03-02T02:55:09;101213.59;;;34.62;23.08
73205;BME280;61413;-27.702;153.216;2024-03-02T02:57:37;101209.60;;;34.61;23.13
73205;BME280;61413;-27.702;153.216;2024-03-02T03:00:06;101202.85;;;34.49;23.07
73205;BME280;61413;-27.702;153.216;2024-03-02T03:02:30;101201.24;;;34.21;22.74
73205;BME280;61413;-27.702;153.216;2024-03-02T03:04:57;101199.68;;;33.90;22.27
73205;BME280;61413;-27.702;153.216;2024-03-02T03:07:23;101199.67;;;34.32;22.90
73205;BME280;61413;-27.702;153.216;2024-03-02T03:09:50;101189.43;;;34.22;22.95
73205;BME280;61413;-27.702;153.216;2024-03-02T03:12:16;101185.13;;;34.22;22.64
73205;BME280;61413;-27.702;153.216;2024-03-02T03:14:43;101182.21;;;34.42;22.20
73205;BME280;61413;-27.702;153.216;2024-03-02T03:17:10;101183.31;;;34.47;22.20
73205;BME280;61413;-27.702;153.216;2024-03-02T03:19:38;101180.24;;;34.44;22.31
73205;BME280;61413;-27.702;153.216;2024-03-02T03:22:05;101176.61;;;34.58;22.15
73205;BME280;61413;-27.702;153.216;2024-03-02T03:24:31;101170.75;;;34.34;22.27
73205;BME280;61413;-27.702;153.216;2024-03-02T03:26:58;101165.69;;;34.74;21.71
73205;BME280;61413;-27.702;153.216;2024-03-02T03:29:24;101164.63;;;34.57;21.71
73205;BME280;61413;-27.702;153.216;2024-03-02T03:31:51;101157.76;;;34.68;21.69
73205;BME280;61413;-27.702;153.216;2024-03-02T03:34:17;101150.46;;;34.48;21.75
73205;BME280;61413;-27.702;153.216;2024-03-02T03:36:43;101141.88;;;34.22;21.79
73205;BME280;61413;-27.702;153.216;2024-03-02T03:39:10;101137.03;;;33.95;22.23
73205;BME280;61413;-27.702;153.216;2024-03-02T03:41:37;101133.38;;;33.84;22.51
73205;BME280;61413;-27.702;153.216;2024-03-02T03:44:06;101136.23;;;34.22;22.55
73205;BME280;61413;-27.702;153.216;2024-03-02T03:46:29;101133.19;;;34.23;22.03
73205;BME280;61413;-27.702;153.216;2024-03-02T03:48:56;101129.65;;;34.38;22.04
73205;BME280;61413;-27.702;153.216;2024-03-02T03:51:22;101124.39;;;34.53;22.08
73205;BME280;61413;-27.702;153.216;2024-03-02T03:53:49;101121.61;;;34.87;21.92
73205;BME280;61413;-27.702;153.216;2024-03-02T03:56:15;101117.61;;;35.15;21.71
73205;BME280;61413;-27.702;153.216;2024-03-02T03:58:42;101110.03;;;35.05;21.50
73205;BME280;61413;-27.702;153.216;2024-03-02T04:01:09;101104.92;;;34.99;21.38
73205;BME280;61413;-27.702;153.216;2024-03-02T04:03:35;101097.45;;;34.95;21.19
73205;BME280;61413;-27.702;153.216;2024-03-02T04:06:02;101093.60;;;35.25;21.08
73205;BME280;61413;-27.702;153.216;2024-03-02T04:08:28;101093.55;;;35.22;20.95
73205;BME280;61413;-27.702;153.216;2024-03-02T04:10:55;101088.86;;;35.33;20.86
73205;BME280;61413;-27.702;153.216;2024-03-02T04:13:22;101084.41;;;35.24;20.81
73205;BME280;61413;-27.702;153.216;2024-03-02T04:15:49;101084.28;;;35.57;20.64
73205;BME280;61413;-27.702;153.216;2024-03-02T04:18:16;101078.65;;;35.23;20.55
73205;BME280;61413;-27.702;153.216;2024-03-02T04:20:42;101076.02;;;35.62;20.50
73205;BME280;61413;-27.702;153.216;2024-03-02T04:23:09;101073.14;;;35.59;20.44
73205;BME280;61413;-27.702;153.216;2024-03-02T04:25:35;101071.44;;;35.63;20.26
73205;BME280;61413;-27.702;153.216;2024-03-02T04:28:02;101062.68;;;35.48;20.04
73205;BME280;61413;-27.702;153.216;2024-03-02T04:30:29;101059.80;;;35.29;20.10
73205;BME280;61413;-27.702;153.216;2024-03-02T04:32:55;101060.09;;;35.23;20.21
73205;BME280;61413;-27.702;153.216;2024-03-02T04:35:22;101059.82;;;35.33;20.30
73205;BME280;61413;-27.702;153.216;2024-03-02T04:37:48;101055.59;;;35.39;21.22
73205;BME280;61413;-27.702;153.216;2024-03-02T04:40:16;101053.77;;;35.12;22.89
73205;BME280;61413;-27.702;153.216;2024-03-02T04:42:42;101049.88;;;34.97;23.60
73205;BME280;61413;-27.702;153.216;2024-03-02T04:45:09;101039.40;;;34.76;24.02
73205;BME280;61413;-27.702;153.216;2024-03-02T04:47:36;101038.42;;;34.55;24.29
73205;BME280;61413;-27.702;153.216;2024-03-02T04:50:03;101033.61;;;34.72;23.72
73205;BME280;61413;-27.702;153.216;2024-03-02T04:52:30;101027.76;;;34.72;23.86
73205;BME280;61413;-27.702;153.216;2024-03-02T04:54:57;101033.17;;;34.93;23.99
73205;BME280;61413;-27.702;153.216;2024-03-02T04:57:24;101029.47;;;34.91;23.77
73205;BME280;61413;-27.702;153.216;2024-03-02T04:59:51;101023.62;;;34.79;23.87
73205;BME280;61413;-27.702;153.216;2024-03-02T05:02:17;101028.46;;;34.47;24.15
73205;BME280;61413;-27.702;153.216;2024-03-02T05:04:44;101019.32;;;34.61;24.20
73205;BME280;61413;-27.702;153.216;2024-03-02T05:07:11;101022.14;;;34.58;24.42
73205;BME280;61413;-27.702;153.216;2024-03-02T05:09:38;101027.75;;;34.47;24.25
73205;BME280;61413;-27.702;153.216;2024-03-02T05:12:06;101025.42;;;34.68;24.16
73205;BME280;61413;-27.702;153.216;2024-03-02T05:14:33;101031.72;;;34.32;24.57
73205;BME280;61413;-27.702;153.216;2024-03-02T05:17:00;101027.01;;;34.57;24.38
73205;BME280;61413;-27.702;153.216;2024-03-02T05:19:26;101022.53;;;34.01;24.57
73205;BME280;61413;-27.702;153.216;2024-03-02T05:21:53;101015.39;;;33.97;24.67
73205;BME280;61413;-27.702;153.216;2024-03-02T05:24:20;101015.89;;;34.01;24.76
73205;BME280;61413;-27.702;153.216;2024-03-02T05:26:47;101013.12;;;33.97;24.99
73205;BME280;61413;-27.702;153.216;2024-03-02T05:29:13;101010.01;;;34.00;25.12
73205;BME280;61413;-27.702;153.216;2024-03-02T05:31:40;101005.02;;;34.28;24.98
73205;BME280;61413;-27.702;153.216;2024-03-02T05:34:07;101009.33;;;33.73;25.04
73205;BME280;61413;-27.702;153.216;2024-03-02T05:36:33;101003.18;;;33.99;25.08
73205;BME280;61413;-27.702;153.216;2024-03-02T05:39:00;101006.11;;;34.06;25.30
73205;BME280;61413;-27.702;153.216;2024-03-02T05:41:27;101005.77;;;34.28;25.24
73205;BME280;61413;-27.702;153.216;2024-03-02T05:43:54;101009.09;;;33.78;25.42
73205;BME280;61413;-27.702;153.216;2024-03-02T05:46:21;101007.34;;;33.69;25.42
73205;BME280;61413;-27.702;153.216;2024-03-02T05:48:47;101007.08;;;33.86;25.43
73205;BME280;61413;-27.702;153.216;2024-03-02T05:51:14;101010.68;;;34.33;25.45
73205;BME280;61413;-27.702;153.216;2024-03-02T05:53:41;101014.80;;;33.78;25.66
73205;BME280;61413;-27.702;153.216;2024-03-02T05:56:08;101018.97;;;34.00;25.44
73205;BME280;61413;-27.702;153.216;2024-03-02T05:58:35;101013.91;;;33.39;25.58
73205;BME280;61413;-27.702;153.216;2024-03-02T06:01:01;101012.93;;;33.42;25.77
73205;BME280;61413;-27.702;153.216;2024-03-02T06:03:28;101011.63;;;33.77;25.76
73205;BME280;61413;-27.702;153.216;2024-03-02T06:12:18;101029.60;;;33.19;25.96
73205;BME280;61413;-27.702;153.216;2024-03-02T06:14:45;101028.29;;;32.99;26.10
73205;BME280;61413;-27.702;153.216;2024-03-02T06:17:12;101029.24;;;32.97;26.16
73205;BME280;61413;-27.702;153.216;2024-03-02T06:19:39;101030.22;;;33.19;26.34
73205;BME280;61413;-27.702;153.216;2024-03-02T06:22:06;101027.52;;;33.02;26.60
73205;BME280;61413;-27.702;153.216;2024-03-02T06:24:33;101032.44;;;32.95;26.67
73205;BME280;61413;-27.702;153.216;2024-03-02T06:26:59;101032.15;;;32.75;26.93
73205;BME280;61413;-27.702;153.216;2024-03-02T06:29:26;101024.05;;;32.78;27.19
73205;BME280;61413;-27.702;153.216;2024-03-02T06:31:53;101023.37;;;32.63;27.47
73205;BME280;61413;-27.702;153.216;2024-03-02T06:34:19;101026.65;;;32.68;27.59
73205;BME280;61413;-27.702;153.216;2024-03-02T06:36:46;101014.22;;;32.43;27.74
73205;BME280;61413;-27.702;153.216;2024-03-02T06:39:13;101007.71;;;32.56;27.76
73205;BME280;61413;-27.702;153.216;2024-03-02T06:41:40;101006.29;;;32.35;27.80
73205;BME280;61413;-27.702;153.216;2024-03-02T06:44:07;101019.47;;;32.13;27.93
73205;BME280;61413;-27.702;153.216;2024-03-02T06:46:34;101023.44;;;32.33;27.72
73205;BME280;61413;-27.702;153.216;2024-03-02T06:49:01;101021.44;;;32.58;27.66
73205;BME280;61413;-27.702;153.216;2024-03-02T06:51:27;101022.47;;;32.13;27.69
73205;BME280;61413;-27.702;153.216;2024-03-02T06:53:54;101024.29;;;32.19;27.85
73205;BME280;61413;-27.702;153.216;2024-03-02T06:56:20;101026.84;;;32.02;27.84
73205;BME280;61413;-27.702;153.216;2024-03-02T06:58:47;101030.79;;;32.03;27.95
73205;BME280;61413;-27.702;153.216;2024-03-02T07:01:13;101032.97;;;32.48;27.98
73205;BME280;61413;-27.702;153.216;2024-03-02T07:03:40;101037.17;;;31.67;28.46
73205;BME280;61413;-27.702;153.216;2024-03-02T07:06:07;101040.15;;;31.70;28.47
73205;BME280;61413;-27.702;153.216;2024-03-02T07:08:34;101041.47;;;31.47;28.90
73205;BME280;61413;-27.702;153.216;2024-03-02T07:11:01;101042.70;;;31.37;29.19
73205;BME280;61413;-27.702;153.216;2024-03-02T07:13:28;101050.34;;;31.40;29.34
73205;BME280;61413;-27.702;153.216;2024-03-02T07:15:54;101053.86;;;31.16;29.67
73205;BME280;61413;-27.702;153.216;2024-03-02T07:18:22;101055.33;;;31.17;29.60
73205;BME280;61413;-27.702;153.216;2024-03-02T07:20:48;101050.72;;;30.97;29.70
73205;BME280;61413;-27.702;153.216;2024-03-02T07:23:15;101046.82;;;30.97;29.73
73205;BME280;61413;-27.702;153.216;2024-03-02T07:25:42;101049.50;;;30.91;29.94
73205;BME280;61413;-27.702;153.216;2024-03-02T07:28:08;101057.46;;;30.89;29.83
73205;BME280;61413;-27.702;153.216;2024-03-02T07:30:35;101063.81;;;30.93;30.03
73205;BME280;61413;-27.702;153.216;2024-03-02T07:33:02;101065.53;;;30.44;30.48
73205;BME280;61413;-27.702;153.216;2024-03-02T07:35:29;101064.36;;;30.58;30.68
73205;BME280;61413;-27.702;153.216;2024-03-02T07:37:56;101067.28;;;30.42;30.96
73205;BME280;61413;-27.702;153.216;2024-03-02T07:40:22;101072.82;;;29.97;31.38
73205;BME280;61413;-27.702;153.216;2024-03-02T07:42:49;101073.98;;;29.80;31.66
73205;BME280;61413;-27.702;153.216;2024-03-02T07:45:17;101079.87;;;29.97;31.76
73205;BME280;61413;-27.702;153.216;2024-03-02T07:47:43;101079.52;;;29.96;31.84
73205;BME280;61413;-27.702;153.216;2024-03-02T07:50:10;101080.23;;;29.77;32.23
73205;BME280;61413;-27.702;153.216;2024-03-02T07:52:37;101081.33;;;29.56;32.32
73205;BME280;61413;-27.702;153.216;2024-03-02T07:55:05;101081.89;;;29.56;32.51
73205;BME280;61413;-27.702;153.216;2024-03-02T07:57:32;101087.73;;;29.27;32.80
73205;BME280;61413;-27.702;153.216;2024-03-02T07:59:58;101090.54;;;29.60;32.99
73205;BME280;61413;-27.702;153.216;2024-03-02T08:02:25;101094.30;;;29.61;33.26
73205;BME280;61413;-27.702;153.216;2024-03-02T08:04:52;101089.98;;;28.89;33.71
73205;BME280;61413;-27.702;153.216;2024-03-02T08:07:19;101091.66;;;29.21;33.89
73205;BME280;61413;-27.702;153.216;2024-03-02T08:09:45;101094.66;;;29.27;34.14
73205;BME280;61413;-27.702;153.216;2024-03-02T08:12:11;101096.58;;;28.82;34.30
73205;BME280;61413;-27.702;153.216;2024-03-02T08:14:38;101100.16;;;28.95;34.46
73205;BME280;61413;-27.702;153.216;2024-03-02T08:17:05;101105.89;;;28.77;34.76
73205;BME280;61413;-27.702;153.216;2024-03-02T08:19:32;101111.60;;;28.62;35.03
73205;BME280;61413;-27.702;153.216;2024-03-02T08:21:59;101118.34;;;28.58;35.08
73205;BME280;61413;-27.702;153.216;2024-03-02T08:24:27;101121.42;;;28.53;35.26
73205;BME280;61413;-27.702;153.216;2024-03-02T08:26:53;101119.98;;;28.57;35.31
73205;BME280;61413;-27.702;153.216;2024-03-02T08:29:20;101123.70;;;28.54;35.32
73205;BME280;61413;-27.702;153.216;2024-03-02T08:31:46;101128.58;;;28.26;35.54
73205;BME280;61413;-27.702;153.216;2024-03-02T08:34:13;101134.32;;;28.57;35.66
73205;BME280;61413;-27.702;153.216;2024-03-02T08:36:39;101147.27;;;28.32;35.84
73205;BME280;61413;-27.702;153.216;2024-03-02T08:39:06;101155.58;;;28.44;35.99
73205;BME280;61413;-27.702;153.216;2024-03-02T08:41:33;101156.63;;;28.58;36.11
73205;BME280;61413;-27.702;153.216;2024-03-02T08:44:00;101160.79;;;28.47;36.24
73205;BME280;61413;-27.702;153.216;2024-03-02T08:46:27;101168.67;;;28.62;36.28
73205;BME280;61413;-27.702;153.216;2024-03-02T08:48:54;101178.54;;;28.50;36.51
73205;BME280;61413;-27.702;153.216;2024-03-02T08:51:20;101180.56;;;28.09;36.81
73205;BME280;61413;-27.702;153.216;2024-03-02T08:53:47;101184.74;;;28.29;36.77
73205;BME280;61413;-27.702;153.216;2024-03-02T08:56:14;101191.29;;;27.99;36.88
73205;BME280;61413;-27.702;153.216;2024-03-02T08:58:40;101199.01;;;28.39;37.03
73205;BME280;61413;-27.702;153.216;2024-03-02T09:01:07;101202.30;;;27.83;37.36
73205;BME280;61413;-27.702;153.216;2024-03-02T09:03:33;101203.87;;;27.79;37.44
73205;BME280;61413;-27.702;153.216;2024-03-02T09:05:59;101211.00;;;28.12;37.68
73205;BME280;61413;-27.702;153.216;2024-03-02T09:08:26;101215.40;;;27.87;37.70
73205;BME280;61413;-27.702;153.216;2024-03-02T09:10:53;101220.35;;;27.67;37.74
73205;BME280;61413;-27.702;153.216;2024-03-02T09:13:20;101221.17;;;27.87;37.74
73205;BME280;61413;-27.702;153.216;2024-03-02T09:15:46;101220.59;;;28.11;37.66
73205;BME280;61413;-27.702;153.216;2024-03-02T09:18:13;101226.70;;;27.99;37.64
73205;BME280;61413;-27.702;153.216;2024-03-02T09:20:40;101231.66;;;28.03;37.50
73205;BME280;61413;-27.702;153.216;2024-03-02T09:23:07;101235.09;;;28.12;37.49
73205;BME280;61413;-27.702;153.216;2024-03-02T09:25:33;101237.98;;;28.06;37.43
73205;BME280;61413;-27.702;153.216;2024-03-02T09:28:00;101231.95;;;28.01;37.49
73205;BME280;61413;-27.702;153.216;2024-03-02T09:30:26;101230.34;;;28.12;37.44
73205;BME280;61413;-27.702;153.216;2024-03-02T09:32:53;101229.09;;;28.10;37.43
73205;BME280;61413;-27.702;153.216;2024-03-02T09:35:19;101231.85;;;28.33;37.35
73205;BME280;61413;-27.702;153.216;2024-03-02T09:37:46;101234.09;;;28.26;37.44
73205;BME280;61413;-27.702;153.216;2024-03-02T09:40:13;101235.46;;;28.02;37.64
73205;BME280;61413;-27.702;153.216;2024-03-02T09:42:40;101239.22;;;28.03;37.75
73205;BME280;61413;-27.702;153.216;2024-03-02T09:45:08;101239.05;;;27.89;37.82
73205;BME280;61413;-27.702;153.216;2024-03-02T09:47:35;101239.73;;;28.03;37.85
73205;BME280;61413;-27.702;153.216;2024-03-02T09:50:01;101241.41;;;28.10;37.82
73205;BME280;61413;-27.702;153.216;2024-03-02T09:52:28;101238.20;;;28.09;37.93
73205;BME280;61413;-27.702;153.216;2024-03-02T09:54:55;101240.45;;;28.02;37.93
73205;BME280;61413;-27.702;153.216;2024-03-02T09:57:21;101245.48;;;27.97;38.09
73205;BME280;61413;-27.702;153.216;2024-03-02T09:59:47;101249.69;;;27.72;38.24
73205;BME280;61413;-27.702;153.216;2024-03-02T10:02:14;101255.66;;;28.00;38.49
73205;BME280;61413;-27.702;153.216;2024-03-02T10:04:40;101260.56;;;27.58;38.54
73205;BME280;61413;-27.702;153.216;2024-03-02T10:07:15;101263.71;;;27.44;38.70
73205;BME280;61413;-27.702;153.216;2024-03-02T10:09:34;101269.30;;;27.48;38.68
73205;BME280;61413;-27.702;153.216;2024-03-02T10:12:06;101274.61;;;27.68;38.85
73205;BME280;61413;-27.702;153.216;2024-03-02T10:14:28;101270.99;;;27.70;38.72
73205;BME280;61413;-27.702;153.216;2024-03-02T10:17:03;101270.05;;;27.62;38.70
73205;BME280;61413;-27.702;153.216;2024-03-02T10:19:23;101270.74;;;27.84;38.70
73205;BME280;61413;-27.702;153.216;2024-03-02T10:21:50;101276.77;;;27.65;38.63
73205;BME280;61413;-27.702;153.216;2024-03-02T10:24:17;101291.37;;;27.74;38.64
73205;BME280;61413;-27.702;153.216;2024-03-02T10:26:44;101346.04;;;27.66;38.78
73205;BME280;61413;-27.702;153.216;2024-03-02T10:29:11;101400.20;;;27.90;38.92
73205;BME280;61413;-27.702;153.216;2024-03-02T10:31:39;101397.69;;;27.72;39.05
73205;BME280;61413;-27.702;153.216;2024-03-02T10:34:06;101384.48;;;27.99;39.13
73205;BME280;61413;-27.702;153.216;2024-03-02T10:36:33;101380.01;;;27.86;39.35
73205;BME280;61413;-27.702;153.216;2024-03-02T10:39:00;101349.16;;;27.77;39.65
73205;BME280;61413;-27.702;153.216;2024-03-02T10:41:28;101339.46;;;27.52;39.62
73205;BME280;61413;-27.702;153.216;2024-03-02T10:43:55;101363.37;;;27.58;39.49
73205;BME280;61413;-27.702;153.216;2024-03-02T10:46:22;101349.22;;;27.37;39.60
73205;BME280;61413;-27.702;153.216;2024-03-02T10:48:49;101340.70;;;27.45;39.73
73205;BME280;61413;-27.702;153.216;2024-03-02T10:51:16;101371.44;;;27.35;39.77
73205;BME280;61413;-27.702;153.216;2024-03-02T10:53:42;101375.37;;;27.49;39.72
73205;BME280;61413;-27.702;153.216;2024-03-02T10:56:11;101337.76;;;27.22;39.89
73205;BME280;61413;-27.702;153.216;2024-03-02T10:58:38;101335.65;;;27.49;39.78
73205;BME280;61413;-27.702;153.216;2024-03-02T11:01:05;101345.85;;;27.31;39.92
73205;BME280;61413;-27.702;153.216;2024-03-02T11:03:33;101350.50;;;27.52;39.89
73205;BME280;61413;-27.702;153.216;2024-03-02T11:05:58;101358.19;;;27.45;39.99
73205;BME280;61413;-27.702;153.216;2024-03-02T11:08:25;101380.20;;;27.39;40.00
73205;BME280;61413;-27.702;153.216;2024-03-02T11:10:57;101384.57;;;27.38;40.19
73205;BME280;61413;-27.702;153.216;2024-03-02T11:13:24;101386.03;;;26.98;40.34
73205;BME280;61413;-27.702;153.216;2024-03-02T11:15:46;101377.77;;;27.25;40.38
73205;BME280;61413;-27.702;153.216;2024-03-02T11:18:13;101391.59;;;27.11;40.67
73205;BME280;61413;-27.702;153.216;2024-03-02T11:20:40;101404.93;;;26.94;40.77
73205;BME280;61413;-27.702;153.216;2024-03-02T11:23:09;101402.74;;;27.08;40.98
73205;BME280;61413;-27.702;153.216;2024-03-02T11:25:36;101403.01;;;27.18;41.01
73205;BME280;61413;-27.702;153.216;2024-03-02T11:34:31;101410.49;;;27.63;40.59
73205;BME280;61413;-27.702;153.216;2024-03-02T11:36:53;101408.85;;;27.74;40.42
73205;BME280;61413;-27.702;153.216;2024-03-02T11:39:20;101414.43;;;27.45;40.36
73205;BME280;61413;-27.702;153.216;2024-03-02T11:41:46;101413.21;;;27.54;40.27
73205;BME280;61413;-27.702;153.216;2024-03-02T11:44:13;101408.61;;;27.42;40.43
73205;BME280;61413;-27.702;153.216;2024-03-02T11:46:41;101413.05;;;27.60;40.53
73205;BME280;61413;-27.702;153.216;2024-03-02T11:49:08;101417.91;;;27.40;40.48
73205;BME280;61413;-27.702;153.216;2024-03-02T11:51:35;101417.91;;;27.68;40.45
73205;BME280;61413;-27.702;153.216;2024-03-02T11:54:01;101413.92;;;27.67;40.26
73205;BME280;61413;-27.702;153.216;2024-03-02T11:56:29;101414.39;;;27.70;40.17
73205;BME280;61413;-27.702;153.216;2024-03-02T11:58:57;101419.65;;;27.64;40.19
73205;BME280;61413;-27.702;153.216;2024-03-02T12:01:24;101425.59;;;27.41;40.43
73205;BME280;61413;-27.702;153.216;2024-03-02T12:03:50;101428.06;;;27.35;40.52
73205;BME280;61413;-27.702;153.216;2024-03-02T12:06:17;101427.99;;;27.51;40.48
73205;BME280;61413;-27.702;153.216;2024-03-02T12:08:44;101433.30;;;27.56;40.29
73205;BME280;61413;-27.702;153.216;2024-03-02T12:11:14;101436.27;;;27.60;40.20
73205;BME280;61413;-27.702;153.216;2024-03-02T12:13:36;101436.81;;;27.65;40.17
73205;BME280;61413;-27.702;153.216;2024-03-02T12:16:03;101438.60;;;27.82;40.07
73205;BME280;61413;-27.702;153.216;2024-03-02T12:18:30;101440.01;;;27.54;40.26
73205;BME280;61413;-27.702;153.216;2024-03-02T12:20:56;101440.48;;;27.37;40.45
73205;BME280;61413;-27.702;153.216;2024-03-02T12:23:22;101443.28;;;27.43;40.68
73205;BME280;61413;-27.702;153.216;2024-03-02T12:25:49;101446.05;;;27.42;40.68
73205;BME280;61413;-27.702;153.216;2024-03-02T12:28:16;101448.47;;;27.16;40.72
73205;BME280;61413;-27.702;153.216;2024-03-02T12:30:42;101453.47;;;27.38;40.83